Time;durP1;ratioP1;P1;durP2;ratioP2;P2;SDS_P1;SDS_P2;PMS_P1;PMS_P2;Temp;Humidity;BMP_temperature;BMP_pressure;BME280_temperature;BME280_humidity;BME280_pressure;Samples;Min_cycle;Max_cycle;Signal;HPM_P1;HPM_P2
2022/04/27 00:01:17;;;;;;;;;;;11.40;93.90;;;;;;4345683;32;42758;-85
2022/04/27 00:03:45;;;;;;;;;;;11.40;94.00;;;;;;4347790;32;44634;-85
2022/04/27 00:06:12;;;;;;;;;;;11.30;93.80;;;;;;4347289;32;43840;-85
2022/04/27 00:08:39;;;;;;;;;;;11.30;94.00;;;;;;4347075;32;46200;-85
2022/04/27 00:11:06;;;;;;;;;;;11.30;94.00;;;;;;4347122;32;44095;-85
2022/04/27 00:13:33;;;;;;;;;;;11.30;93.90;;;;;;4347249;32;44171;-85
2022/04/27 00:16:00;;;;;;;;;;;11.30;94.00;;;;;;4347131;32;45185;-85
2022/04/27 00:18:27;;;;;;;;;;;11.20;94.10;;;;;;4347071;32;42835;-85
2022/04/27 00:20:54;;;;;;;;;;;11.20;94.00;;;;;;4347116;32;44278;-86
2022/04/27 00:23:25;;;;;;;;;;;11.20;94.10;;;;;;4347600;32;43497;-85
2022/04/27 00:25:52;;;;;;;;;;;11.20;94.10;;;;;;4346929;32;42238;-85
2022/04/27 00:28:19;;;;;;;;;;;11.20;94.10;;;;;;4347346;32;44530;-85
2022/04/27 00:30:46;;;;;;;;;;;11.20;94.10;;;;;;4346948;32;44285;-85
2022/04/27 00:33:13;;;;;;;;;;;11.10;94.20;;;;;;4347184;32;44308;-85
2022/04/27 00:35:40;;;;;;;;;;;11.10;94.10;;;;;;4346811;32;44259;-85
2022/04/27 00:38:07;;;;;;;;;;;11.10;94.20;;;;;;4346683;32;45593;-85
2022/04/27 00:40:34;;;;;;;;;;;11.10;94.20;;;;;;4346778;32;45563;-85
2022/04/27 00:43:01;;;;;;;;;;;11.10;94.30;;;;;;4347101;32;43299;-85
2022/04/27 00:45:28;;;;;;;;;;;11.00;94.30;;;;;;4347084;32;42878;-85
2022/04/27 00:47:55;;;;;;;;;;;11.10;94.30;;;;;;4347027;32;45587;-85
2022/04/27 00:50:22;;;;;;;;;;;11.00;94.30;;;;;;4347067;32;46289;-85
2022/04/27 00:52:51;;;;;;;;;;;11.00;94.30;;;;;;4347123;32;45653;-85
2022/04/27 00:55:18;;;;;;;;;;;11.00;94.40;;;;;;4346792;32;43018;-84
2022/04/27 00:57:47;;;;;;;;;;;11.00;94.40;;;;;;4346721;32;43289;-84
2022/04/27 01:00:15;;;;;;;;;;;11.00;94.40;;;;;;4347129;32;43497;-84
2022/04/27 01:02:42;;;;;;;;;;;11.00;94.50;;;;;;4346376;32;42381;-84
2022/04/27 01:05:11;;;;;;;;;;;11.00;94.40;;;;;;4360392;32;45198;-84
2022/04/27 01:07:39;;;;;;;;;;;10.90;94.40;;;;;;4346775;32;45790;-85
2022/04/27 01:10:08;;;;;;;;;;;10.90;94.50;;;;;;4360558;32;43933;-84
2022/04/27 01:12:36;;;;;;;;;;;10.90;94.40;;;;;;4346525;32;42742;-84
2022/04/27 01:15:03;;;;;;;;;;;10.90;94.50;;;;;;4346826;32;43593;-84
2022/04/27 01:17:30;;;;;;;;;;;10.90;94.50;;;;;;4346676;32;44283;-84
2022/04/27 01:19:58;;;;;;;;;;;10.90;94.50;;;;;;4346423;32;43384;-84
2022/04/27 01:22:27;;;;;;;;;;;10.90;94.50;;;;;;4346404;32;43546;-84
2022/04/27 01:24:56;;;;;;;;;;;10.80;94.60;;;;;;4346557;32;43308;-84
2022/04/27 01:27:23;;;;;;;;;;;10.90;94.60;;;;;;4346095;32;45929;-84
2022/04/27 01:29:50;;;;;;;;;;;10.90;94.60;;;;;;4359623;33;44254;-84
2022/04/27 01:32:17;;;;;;;;;;;10.80;94.50;;;;;;4346272;33;46363;-84
2022/04/27 01:34:45;;;;;;;;;;;10.80;94.50;;;;;;4360028;33;46328;-84
2022/04/27 01:39:57;;;;;;;;;;;10.80;94.60;;;;;;4360004;33;44004;-83
2022/04/27 01:42:25;;;;;;;;;;;10.80;94.50;;;;;;4359777;33;45730;-84
2022/04/27 01:44:52;;;;;;;;;;;10.80;94.50;;;;;;4346575;33;43992;-84
2022/04/27 01:47:19;;;;;;;;;;;10.80;94.50;;;;;;4346015;33;44104;-84
2022/04/27 01:49:46;;;;;;;;;;;10.80;94.60;;;;;;4346337;33;43302;-83
2022/04/27 01:54:59;;;;;;;;;;;10.70;94.60;;;;;;4360090;33;44362;-84
2022/04/27 01:57:26;;;;;;;;;;;10.70;95.00;;;;;;4346287;33;44330;-84
2022/04/27 01:59:55;;;;;;;;;;;10.70;94.70;;;;;;4346542;33;43188;-84
2022/04/27 02:02:22;;;;;;;;;;;10.70;94.60;;;;;;4343498;33;43027;-84
2022/04/27 02:04:49;;;;;;;;;;;10.70;94.60;;;;;;4344798;33;42950;-83
2022/04/27 02:07:16;;;;;;;;;;;10.70;94.60;;;;;;4343927;33;43285;-84
2022/04/27 02:09:43;;;;;;;;;;;10.70;94.60;;;;;;4343756;33;46194;-83
2022/04/27 02:12:10;;;;;;;;;;;10.70;94.60;;;;;;4343749;33;46018;-83
2022/04/27 02:14:37;;;;;;;;;;;10.60;94.60;;;;;;4344924;33;46012;-83
2022/04/27 02:17:05;;;;;;;;;;;10.60;94.50;;;;;;4344939;33;43327;-83
2022/04/27 02:19:32;;;;;;;;;;;10.60;94.50;;;;;;4343372;33;44913;-83
2022/04/27 02:21:59;;;;;;;;;;;10.60;94.50;;;;;;4343754;33;42950;-84
2022/04/27 02:24:26;;;;;;;;;;;10.60;94.40;;;;;;4344458;33;43458;-83
2022/04/27 02:26:54;;;;;;;;;;;10.60;94.30;;;;;;4343699;33;43505;-83
2022/04/27 02:29:22;;;;;;;;;;;10.60;94.30;;;;;;4343389;33;43945;-83
2022/04/27 02:31:49;;;;;;;;;;;10.60;94.30;;;;;;4344419;33;43041;-83
2022/04/27 02:34:17;;;;;;;;;;;10.50;94.70;;;;;;4343476;33;43733;-81
2022/04/27 02:36:44;;;;;;;;;;;10.50;94.40;;;;;;4343252;33;43521;-83
2022/04/27 02:39:11;;;;;;;;;;;10.50;94.70;;;;;;4345891;33;43774;-83
2022/04/27 02:41:38;;;;;;;;;;;10.40;94.30;;;;;;4347395;33;43772;-83
2022/04/27 02:44:05;;;;;;;;;;;10.40;94.30;;;;;;4346201;33;43236;-83
2022/04/27 02:46:32;;;;;;;;;;;10.40;94.30;;;;;;4346322;33;44511;-83
2022/04/27 02:51:54;;;;;;;;;;;10.40;94.40;;;;;;4347627;33;21134;-83
2022/04/27 02:54:22;;;;;;;;;;;10.30;94.40;;;;;;4347332;33;43941;-83
2022/04/27 02:56:49;;;;;;;;;;;10.30;94.40;;;;;;4346206;33;44274;-83
2022/04/27 02:59:17;;;;;;;;;;;10.30;94.40;;;;;;4346989;33;42642;-83
2022/04/27 03:01:44;;;;;;;;;;;10.30;94.40;;;;;;4345467;33;44670;-83
2022/04/27 03:04:11;;;;;;;;;;;10.30;94.40;;;;;;4347095;33;43948;-83
2022/04/27 03:06:38;;;;;;;;;;;10.30;94.50;;;;;;4345568;33;44061;-83
2022/04/27 03:09:05;;;;;;;;;;;10.30;94.50;;;;;;4346811;33;43113;-84
2022/04/27 03:11:32;;;;;;;;;;;10.30;94.40;;;;;;4347283;33;44014;-83
2022/04/27 03:13:59;;;;;;;;;;;10.20;94.40;;;;;;4345517;33;42875;-83
2022/04/27 03:16:27;;;;;;;;;;;10.20;94.40;;;;;;4346974;33;45813;-83
2022/04/27 03:18:54;;;;;;;;;;;10.20;94.30;;;;;;4346846;33;44161;-83
2022/04/27 03:21:21;;;;;;;;;;;10.20;94.40;;;;;;4346361;33;43456;-83
2022/04/27 03:23:48;;;;;;;;;;;10.20;94.30;;;;;;4346583;33;44920;-84
2022/04/27 03:26:15;;;;;;;;;;;10.20;94.40;;;;;;4345262;33;46362;-83
2022/04/27 03:28:42;;;;;;;;;;;10.20;94.40;;;;;;4346225;33;42974;-83
2022/04/27 03:31:09;;;;;;;;;;;10.20;94.40;;;;;;4345297;33;42730;-83
2022/04/27 03:33:37;;;;;;;;;;;10.10;94.40;;;;;;4346030;33;43095;-83
2022/04/27 03:36:05;;;;;;;;;;;10.10;94.30;;;;;;4345750;33;44050;-83
2022/04/27 03:38:32;;;;;;;;;;;10.10;94.40;;;;;;4345064;33;44122;-83
2022/04/27 03:40:59;;;;;;;;;;;10.10;94.50;;;;;;4345245;33;43737;-83
2022/04/27 03:43:26;;;;;;;;;;;10.10;94.40;;;;;;4345003;33;45119;-83
2022/04/27 03:45:53;;;;;;;;;;;10.10;94.40;;;;;;4345649;33;43222;-83
2022/04/27 03:48:21;;;;;;;;;;;10.00;94.40;;;;;;4345285;33;45524;-83
2022/04/27 03:50:48;;;;;;;;;;;10.00;94.40;;;;;;4344739;33;43118;-83
2022/04/27 03:53:15;;;;;;;;;;;10.00;94.40;;;;;;4345037;33;43023;-83
2022/04/27 03:55:42;;;;;;;;;;;10.00;94.30;;;;;;4345048;33;43422;-83
2022/04/27 03:58:09;;;;;;;;;;;10.00;94.40;;;;;;4344916;33;45500;-84
2022/04/27 04:00:36;;;;;;;;;;;10.00;94.40;;;;;;4344801;33;44138;-83
2022/04/27 04:03:04;;;;;;;;;;;10.00;94.40;;;;;;4344784;33;43034;-84
2022/04/27 04:05:31;;;;;;;;;;;10.00;94.50;;;;;;4346267;33;45210;-83
2022/04/27 04:07:58;;;;;;;;;;;9.90;94.40;;;;;;4344652;33;44972;-83
2022/04/27 04:10:25;;;;;;;;;;;9.90;94.50;;;;;;4346270;33;45789;-83
2022/04/27 04:12:52;;;;;;;;;;;9.90;94.40;;;;;;4345037;33;42645;-83
2022/04/27 04:15:19;;;;;;;;;;;9.90;94.30;;;;;;4345199;33;43908;-83
2022/04/27 04:17:47;;;;;;;;;;;9.90;94.40;;;;;;4344541;33;43063;-84
2022/04/27 04:20:15;;;;;;;;;;;9.80;94.30;;;;;;4344963;33;44147;-84
2022/04/27 04:22:42;;;;;;;;;;;9.80;94.30;;;;;;4344781;33;44741;-84
2022/04/27 04:30:41;;;;;;;;;;;9.80;94.50;;;;;;4345653;33;43177;-83
2022/04/27 04:33:08;;;;;;;;;;;9.80;94.50;;;;;;4344374;33;43816;-84
2022/04/27 04:35:36;;;;;;;;;;;9.70;94.50;;;;;;4344800;33;45361;-83
2022/04/27 04:38:04;;;;;;;;;;;9.70;94.60;;;;;;4345590;33;44787;-84
2022/04/27 04:40:31;;;;;;;;;;;9.80;94.60;;;;;;4344249;33;44719;-84
2022/04/27 04:42:59;;;;;;;;;;;9.70;94.70;;;;;;4345706;33;43255;-84
2022/04/27 04:45:26;;;;;;;;;;;9.70;94.70;;;;;;4344541;33;43528;-84
2022/04/27 04:47:53;;;;;;;;;;;9.70;94.70;;;;;;4344669;33;43219;-84
2022/04/27 04:50:21;;;;;;;;;;;9.70;94.70;;;;;;4345923;33;43317;-83
2022/04/27 04:52:48;;;;;;;;;;;9.70;94.70;;;;;;4345668;33;43867;-83
2022/04/27 04:55:16;;;;;;;;;;;9.70;94.90;;;;;;4344511;33;44229;-83
2022/04/27 04:57:43;;;;;;;;;;;9.70;94.90;;;;;;4344433;33;45121;-84
2022/04/27 05:00:11;;;;;;;;;;;9.70;94.90;;;;;;4345100;33;44226;-84
2022/04/27 05:02:38;;;;;;;;;;;9.70;94.90;;;;;;4343767;33;44942;-83
2022/04/27 05:05:06;;;;;;;;;;;9.60;94.90;;;;;;4344373;33;43929;-83
2022/04/27 05:07:33;;;;;;;;;;;9.70;95.00;;;;;;4345353;33;44073;-84
2022/04/27 05:10:00;;;;;;;;;;;9.60;95.00;;;;;;4345581;32;45112;-84
2022/04/27 05:12:27;;;;;;;;;;;9.60;95.00;;;;;;4343960;33;46076;-84
2022/04/27 05:14:55;;;;;;;;;;;9.60;95.10;;;;;;4344503;33;43168;-83
2022/04/27 05:17:23;;;;;;;;;;;9.60;95.20;;;;;;4344261;33;45867;-84
2022/04/27 05:19:52;;;;;;;;;;;9.60;95.20;;;;;;4344109;33;44887;-84
2022/04/27 05:22:19;;;;;;;;;;;9.60;95.20;;;;;;4343737;33;45070;-84
2022/04/27 05:24:46;;;;;;;;;;;9.60;95.20;;;;;;4344142;33;43452;-84
2022/04/27 05:27:17;;;;;;;;;;;9.60;95.10;;;;;;4343821;33;45753;-84
2022/04/27 05:32:39;;;;;;;;;;;9.50;94.90;;;;;;4345228;33;44781;-84
2022/04/27 05:35:06;;;;;;;;;;;9.50;95.00;;;;;;4344271;33;43884;-84
2022/04/27 05:37:33;;;;;;;;;;;9.50;95.00;;;;;;4343780;33;44620;-84
2022/04/27 05:40:00;;;;;;;;;;;9.50;95.00;;;;;;4344170;33;44077;-83
2022/04/27 05:42:27;;;;;;;;;;;9.50;95.10;;;;;;4343615;33;42877;-84
2022/04/27 05:44:55;;;;;;;;;;;9.50;95.10;;;;;;4344175;33;44226;-84
2022/04/27 05:47:23;;;;;;;;;;;9.50;95.20;;;;;;4343683;33;43890;-84
2022/04/27 05:49:50;;;;;;;;;;;9.50;95.30;;;;;;4344039;33;43939;-84
2022/04/27 05:52:18;;;;;;;;;;;9.50;95.50;;;;;;4343485;33;44095;-84
2022/04/27 05:54:46;;;;;;;;;;;9.50;95.50;;;;;;4344058;33;44267;-84
2022/04/27 05:57:13;;;;;;;;;;;9.50;95.60;;;;;;4344128;33;43294;-84
2022/04/27 05:59:42;;;;;;;;;;;9.50;95.70;;;;;;4345082;33;44247;-85
2022/04/27 06:02:09;;;;;;;;;;;9.50;95.70;;;;;;4351155;33;43949;-83
2022/04/27 06:04:37;;;;;;;;;;;9.50;95.90;;;;;;4346011;33;44178;-83
2022/04/27 06:07:06;;;;;;;;;;;9.50;95.90;;;;;;4346526;33;44117;-82
2022/04/27 06:09:33;;;;;;;;;;;9.50;96.10;;;;;;4359511;33;43338;-83
2022/04/27 06:12:00;;;;;;;;;;;9.50;96.10;;;;;;4359559;33;44942;-83
2022/04/27 06:14:27;;;;;;;;;;;9.50;96.20;;;;;;4360828;32;43172;-83
2022/04/27 06:16:54;;;;;;;;;;;9.50;96.20;;;;;;4348709;32;44755;-83
2022/04/27 06:19:21;;;;;;;;;;;9.50;96.30;;;;;;4349023;32;43473;-83
2022/04/27 06:21:48;;;;;;;;;;;9.50;96.40;;;;;;4349178;32;44942;-83
2022/04/27 06:24:16;;;;;;;;;;;9.50;96.40;;;;;;4349018;32;42915;-83
2022/04/27 06:26:43;;;;;;;;;;;9.50;96.60;;;;;;4349135;32;44313;-83
2022/04/27 06:29:10;;;;;;;;;;;9.50;96.60;;;;;;4362245;32;45772;-83
2022/04/27 06:31:37;;;;;;;;;;;9.50;96.80;;;;;;4361883;32;45299;-84
2022/04/27 06:34:04;;;;;;;;;;;9.50;97.10;;;;;;4348592;32;43798;-83
2022/04/27 06:36:31;;;;;;;;;;;9.50;97.30;;;;;;4362355;32;44746;-83
2022/04/27 06:38:58;;;;;;;;;;;9.50;97.40;;;;;;4362411;32;45250;-83
2022/04/27 06:41:26;;;;;;;;;;;9.50;97.60;;;;;;4362044;32;43202;-83
2022/04/27 06:43:55;;;;;;;;;;;9.50;97.80;;;;;;4348603;32;42410;-83
2022/04/27 06:46:29;;;;;;;;;;;9.50;98.20;;;;;;4348684;32;44556;-83
2022/04/27 06:48:58;;;;;;;;;;;9.50;97.70;;;;;;4349009;32;45441;-84
2022/04/27 06:51:25;;;;;;;;;;;9.50;97.60;;;;;;4361717;32;43943;-82
2022/04/27 06:53:52;;;;;;;;;;;9.60;98.00;;;;;;4349131;32;20500;-82
2022/04/27 06:56:19;;;;;;;;;;;9.60;97.80;;;;;;4348269;32;43254;-82
2022/04/27 06:58:46;;;;;;;;;;;9.60;98.10;;;;;;4362028;32;42721;-82
2022/04/27 07:01:18;;;;;;;;;;;9.60;97.90;;;;;;4348260;32;42544;-83
2022/04/27 07:03:45;;;;;;;;;;;9.60;97.80;;;;;;4348778;32;44963;-82
2022/04/27 07:06:13;;;;;;;;;;;9.60;97.80;;;;;;4348361;32;43466;-82
2022/04/27 07:08:40;;;;;;;;;;;9.60;98.00;;;;;;4361994;32;44111;-82
2022/04/27 07:11:07;;;;;;;;;;;9.60;98.00;;;;;;4361827;32;44534;-83
2022/04/27 07:13:34;;;;;;;;;;;9.70;98.40;;;;;;4361934;32;44008;-83
2022/04/27 07:16:01;;;;;;;;;;;9.70;98.20;;;;;;4348098;32;43023;-83
2022/04/27 07:18:29;;;;;;;;;;;9.70;98.50;;;;;;4361272;32;44441;-83
2022/04/27 07:20:57;;;;;;;;;;;9.70;98.60;;;;;;4361590;32;43244;-82
2022/04/27 07:23:24;;;;;;;;;;;9.70;98.30;;;;;;4361669;32;43894;-82
2022/04/27 07:25:52;;;;;;;;;;;9.70;97.90;;;;;;4348324;32;44166;-83
2022/04/27 07:28:19;;;;;;;;;;;9.70;97.70;;;;;;4348221;32;44858;-82
2022/04/27 07:30:46;;;;;;;;;;;9.70;97.90;;;;;;4347986;32;44209;-83
2022/04/27 07:33:13;;;;;;;;;;;9.70;98.30;;;;;;4348029;32;42910;-83
2022/04/27 07:35:40;;;;;;;;;;;9.80;97.80;;;;;;4347993;32;44346;-83
2022/04/27 07:38:07;;;;;;;;;;;9.80;97.90;;;;;;4347818;32;42972;-83
2022/04/27 07:40:34;;;;;;;;;;;9.80;98.20;;;;;;4348008;32;46453;-83
2022/04/27 07:43:01;;;;;;;;;;;9.80;98.40;;;;;;4347559;32;45370;-83
2022/04/27 07:45:29;;;;;;;;;;;9.80;98.20;;;;;;4347716;32;42689;-83
2022/04/27 07:47:56;;;;;;;;;;;9.80;98.20;;;;;;4347598;32;43750;-82
2022/04/27 07:50:23;;;;;;;;;;;9.80;98.40;;;;;;4347896;32;44274;-83
2022/04/27 07:52:51;;;;;;;;;;;9.80;98.20;;;;;;4347992;32;43954;-83
2022/04/27 07:55:18;;;;;;;;;;;9.80;98.10;;;;;;4360690;32;44440;-83
2022/04/27 07:57:45;;;;;;;;;;;9.90;97.90;;;;;;4361081;32;44215;-83
2022/04/27 08:00:12;;;;;;;;;;;9.90;97.90;;;;;;4347655;32;43253;-84
2022/04/27 08:02:42;;;;;;;;;;;9.90;97.80;;;;;;4360759;32;43619;-82
2022/04/27 08:05:10;;;;;;;;;;;9.90;97.90;;;;;;4361016;32;43754;-82
2022/04/27 08:07:41;;;;;;;;;;;9.90;97.80;;;;;;4347724;32;43338;-83
2022/04/27 08:10:12;;;;;;;;;;;9.90;97.80;;;;;;4360701;32;43454;-82
2022/04/27 08:12:40;;;;;;;;;;;9.90;97.70;;;;;;4347319;32;44004;-82
2022/04/27 08:15:07;;;;;;;;;;;10.00;97.80;;;;;;4347126;32;46215;-82
2022/04/27 08:17:35;;;;;;;;;;;10.00;98.00;;;;;;4347457;32;44206;-83
2022/04/27 08:22:48;;;;;;;;;;;10.00;98.10;;;;;;4360699;32;43273;-83
2022/04/27 08:25:15;;;;;;;;;;;10.00;98.30;;;;;;4360508;32;44328;-83
2022/04/27 08:27:42;;;;;;;;;;;10.00;97.90;;;;;;4347204;32;44175;-83
2022/04/27 08:30:09;;;;;;;;;;;10.00;97.90;;;;;;4346945;32;44609;-82
2022/04/27 08:32:36;;;;;;;;;;;10.10;98.00;;;;;;4360463;32;43467;-83
2022/04/27 08:35:04;;;;;;;;;;;10.10;98.10;;;;;;4347244;32;44400;-82
2022/04/27 08:37:33;;;;;;;;;;;10.10;98.20;;;;;;4359893;32;46373;-82
2022/04/27 08:40:06;;;;;;;;;;;10.10;98.10;;;;;;4347737;32;42920;-82
2022/04/27 08:42:34;;;;;;;;;;;10.10;98.60;;;;;;4347068;32;43470;-82
2022/04/27 08:45:01;;;;;;;;;;;10.20;98.40;;;;;;4346722;32;44176;-82
2022/04/27 08:47:29;;;;;;;;;;;10.20;98.30;;;;;;4360496;32;43050;-82
2022/04/27 08:49:56;;;;;;;;;;;10.20;98.10;;;;;;4346660;32;43466;-82
2022/04/27 08:52:24;;;;;;;;;;;10.20;98.20;;;;;;4347195;32;43982;-82
2022/04/27 08:54:51;;;;;;;;;;;10.20;98.40;;;;;;4347095;32;45830;-82
2022/04/27 08:57:19;;;;;;;;;;;10.20;98.10;;;;;;4347041;32;44967;-82
2022/04/27 08:59:46;;;;;;;;;;;10.20;98.30;;;;;;4360328;32;42776;-81
2022/04/27 09:02:26;;;;;;;;;;;10.20;98.30;;;;;;4346594;32;45219;-81
2022/04/27 09:05:17;;;;;;;;;;;10.30;98.30;;;;;;4359994;32;44164;-81
2022/04/27 09:07:51;;;;;;;;;;;10.30;98.10;;;;;;4337558;32;43561;-81
2022/04/27 09:10:25;;;;;;;;;;;10.30;97.90;;;;;;4346869;32;46235;-81
2022/04/27 09:12:52;;;;;;;;;;;10.40;98.10;;;;;;4347152;32;44231;-81
2022/04/27 09:15:20;;;;;;;;;;;10.30;98.10;;;;;;4346613;32;42687;-81
2022/04/27 09:20:47;;;;;;;;;;;10.40;98.00;;;;;;4360511;32;44019;-81
2022/04/27 09:23:22;;;;;;;;;;;10.40;97.90;;;;;;4359807;32;43063;-81
2022/04/27 09:25:51;;;;;;;;;;;10.40;97.90;;;;;;4347235;32;20005;-81
2022/04/27 09:28:33;;;;;;;;;;;10.40;97.80;;;;;;4348451;32;42842;-80
2022/04/27 09:31:01;;;;;;;;;;;10.40;98.00;;;;;;4359673;32;42958;-80
2022/04/27 09:33:28;;;;;;;;;;;10.50;97.90;;;;;;4346717;33;43187;-81
2022/04/27 09:35:56;;;;;;;;;;;10.50;97.90;;;;;;4346311;33;42743;-81
2022/04/27 09:38:23;;;;;;;;;;;10.50;98.20;;;;;;4346215;33;42679;-81
2022/04/27 09:40:56;;;;;;;;;;;10.50;98.00;;;;;;4360071;33;44617;-81
2022/04/27 09:43:59;;;;;;;;;;;10.50;98.10;;;;;;4346666;33;44156;-81
2022/04/27 09:46:26;;;;;;;;;;;10.50;97.90;;;;;;4272896;33;43669;-81
2022/04/27 09:49:14;;;;;;;;;;;10.60;98.00;;;;;;4333085;32;43215;-81
2022/04/27 09:52:01;;;;;;;;;;;10.60;98.00;;;;;;4351907;32;44945;-81
2022/04/27 09:54:29;;;;;;;;;;;10.60;97.80;;;;;;4362851;32;44660;-81
2022/04/27 09:56:57;;;;;;;;;;;10.60;97.70;;;;;;4349903;32;43465;-81
2022/04/27 09:59:27;;;;;;;;;;;10.70;97.80;;;;;;4349138;32;44276;-81
2022/04/27 10:01:56;;;;;;;;;;;10.60;97.70;;;;;;4348523;33;43006;-81
2022/04/27 10:04:25;;;;;;;;;;;10.70;97.70;;;;;;4348132;33;42642;-81
2022/04/27 10:06:53;;;;;;;;;;;10.70;97.60;;;;;;4361308;33;42539;-81
2022/04/27 10:09:20;;;;;;;;;;;10.70;97.60;;;;;;4361331;33;42775;-81
2022/04/27 10:12:11;;;;;;;;;;;10.70;97.50;;;;;;4361779;33;44908;-80
2022/04/27 10:14:38;;;;;;;;;;;10.80;97.50;;;;;;4361859;33;43958;-81
2022/04/27 10:17:06;;;;;;;;;;;10.70;97.50;;;;;;4348325;33;45849;-81
2022/04/27 10:19:33;;;;;;;;;;;10.70;97.50;;;;;;4347852;33;43871;-81
2022/04/27 10:22:04;;;;;;;;;;;10.80;97.50;;;;;;4348403;33;43878;-81
2022/04/27 10:24:34;;;;;;;;;;;10.80;97.60;;;;;;4361525;33;42589;-80
2022/04/27 10:27:15;;;;;;;;;;;10.80;97.60;;;;;;4348777;33;20001;-81
2022/04/27 10:29:44;;;;;;;;;;;10.80;97.60;;;;;;4348060;33;44004;-81
2022/04/27 10:32:11;;;;;;;;;;;10.80;97.60;;;;;;4347985;33;45639;-81
2022/04/27 10:34:38;;;;;;;;;;;10.80;97.60;;;;;;4347795;33;43189;-81
2022/04/27 10:37:05;;;;;;;;;;;10.90;97.70;;;;;;4347875;33;44236;-81
2022/04/27 10:39:33;;;;;;;;;;;10.90;97.60;;;;;;4361378;33;43803;-81
2022/04/27 10:42:04;;;;;;;;;;;10.90;97.50;;;;;;4347684;33;43468;-81
2022/04/27 10:44:46;;;;;;;;;;;10.90;97.50;;;;;;4347535;33;43862;-81
2022/04/27 10:47:18;;;;;;;;;;;11.00;97.50;;;;;;4347528;33;43923;-80
2022/04/27 10:49:50;;;;;;;;;;;11.00;97.50;;;;;;4361130;33;44900;-81
2022/04/27 10:52:23;;;;;;;;;;;11.00;97.50;;;;;;4347906;33;42843;-80
2022/04/27 10:54:50;;;;;;;;;;;11.00;97.60;;;;;;4348070;33;43545;-80
2022/04/27 10:57:17;;;;;;;;;;;11.00;97.60;;;;;;4361533;33;20019;-80
2022/04/27 10:59:48;;;;;;;;;;;11.10;97.70;;;;;;4347063;33;43384;-80
2022/04/27 11:02:31;;;;;;;;;;;11.10;97.70;;;;;;4361364;32;43924;-81
2022/04/27 11:04:59;;;;;;;;;;;11.10;97.70;;;;;;4348761;32;44760;-81
2022/04/27 11:07:29;;;;;;;;;;;11.10;97.60;;;;;;4348500;32;45029;-81
2022/04/27 11:09:59;;;;;;;;;;;11.10;97.60;;;;;;4348565;32;44565;-81
2022/04/27 11:12:27;;;;;;;;;;;11.10;97.60;;;;;;4348632;32;45545;-81
2022/04/27 11:15:00;;;;;;;;;;;11.20;97.70;;;;;;4348050;32;43486;-80
2022/04/27 11:17:32;;;;;;;;;;;11.20;97.50;;;;;;4348486;32;42782;-81
2022/04/27 11:20:03;;;;;;;;;;;11.20;97.50;;;;;;4348008;32;42827;-81
2022/04/27 11:22:38;;;;;;;;;;;11.20;97.40;;;;;;4361334;32;43077;-80
2022/04/27 11:25:07;;;;;;;;;;;11.20;97.50;;;;;;4347983;32;42755;-81
2022/04/27 11:27:36;;;;;;;;;;;11.30;97.50;;;;;;4362066;32;20161;-81
2022/04/27 11:30:05;;;;;;;;;;;11.30;97.60;;;;;;4361440;32;43992;-81
2022/04/27 11:32:33;;;;;;;;;;;11.30;97.90;;;;;;4361252;32;42792;-81
2022/04/27 11:35:00;;;;;;;;;;;11.40;97.60;;;;;;4348240;32;43184;-81
2022/04/27 11:37:28;;;;;;;;;;;11.40;97.70;;;;;;4361213;32;43574;-81
2022/04/27 11:40:10;;;;;;;;;;;11.40;97.70;;;;;;4347731;32;43336;-81
2022/04/27 11:42:40;;;;;;;;;;;11.40;97.70;;;;;;4348187;32;43293;-80
2022/04/27 11:45:08;;;;;;;;;;;11.40;97.70;;;;;;4361388;32;44100;-80
2022/04/27 11:47:35;;;;;;;;;;;11.50;97.80;;;;;;4347615;32;46010;-81
2022/04/27 11:50:03;;;;;;;;;;;11.40;97.70;;;;;;4347943;32;45866;-80
2022/04/27 11:52:31;;;;;;;;;;;11.50;97.80;;;;;;4361365;32;43375;-81
2022/04/27 11:55:02;;;;;;;;;;;11.50;97.80;;;;;;4361447;32;43478;-81
2022/04/27 11:57:29;;;;;;;;;;;11.60;97.60;;;;;;4347809;32;44198;-80
2022/04/27 11:59:57;;;;;;;;;;;11.60;97.60;;;;;;4361258;32;42740;-81
2022/04/27 12:02:32;;;;;;;;;;;11.60;97.60;;;;;;4348203;32;44587;-80
2022/04/27 12:05:00;;;;;;;;;;;11.60;97.70;;;;;;4347742;32;44322;-80
2022/04/27 12:07:32;;;;;;;;;;;11.70;97.60;;;;;;4347336;32;43497;-80
2022/04/27 12:10:06;;;;;;;;;;;11.70;97.60;;;;;;4361074;32;43288;-80
2022/04/27 12:12:37;;;;;;;;;;;11.70;97.60;;;;;;4360552;32;42296;-80
2022/04/27 12:15:05;;;;;;;;;;;11.70;97.60;;;;;;4360537;32;43306;-80
2022/04/27 12:17:45;;;;;;;;;;;11.80;97.60;;;;;;4360490;32;43964;-80
2022/04/27 12:20:27;;;;;;;;;;;11.80;97.40;;;;;;4361028;32;43877;-80
2022/04/27 12:22:59;;;;;;;;;;;11.80;97.70;;;;;;4347248;32;43565;-80
2022/04/27 12:25:33;;;;;;;;;;;11.80;97.70;;;;;;4347205;32;42693;-81
2022/04/27 12:28:01;;;;;;;;;;;11.80;97.70;;;;;;4347627;32;43211;-81
2022/04/27 12:30:28;;;;;;;;;;;11.90;97.60;;;;;;4347549;32;44790;-80
2022/04/27 12:32:55;;;;;;;;;;;11.90;97.40;;;;;;4347345;32;44180;-80
2022/04/27 12:38:17;;;;;;;;;;;12.00;97.30;;;;;;4360687;32;46504;-80
2022/04/27 12:40:44;;;;;;;;;;;12.10;97.40;;;;;;4346841;32;43697;-80
2022/04/27 12:43:12;;;;;;;;;;;12.10;97.40;;;;;;4347340;32;45981;-80
2022/04/27 12:45:40;;;;;;;;;;;12.10;97.40;;;;;;4347158;32;43970;-81
2022/04/27 12:48:26;;;;;;;;;;;12.10;97.20;;;;;;4346789;32;43845;-81
2022/04/27 12:50:53;;;;;;;;;;;12.10;97.10;;;;;;4360862;32;43930;-81
2022/04/27 12:53:21;;;;;;;;;;;12.20;97.10;;;;;;4346944;32;44022;-81
2022/04/27 12:55:59;;;;;;;;;;;12.20;97.20;;;;;;4346896;32;45574;-81
2022/04/27 12:58:26;;;;;;;;;;;12.30;97.30;;;;;;4360488;32;44159;-81
2022/04/27 13:00:53;;;;;;;;;;;12.30;97.30;;;;;;4360874;32;20043;-81
2022/04/27 13:03:20;;;;;;;;;;;12.30;97.20;;;;;;4359930;32;43854;-80
2022/04/27 13:05:50;;;;;;;;;;;12.30;97.00;;;;;;4346595;32;43901;-80
2022/04/27 13:08:17;;;;;;;;;;;12.40;97.10;;;;;;4346785;32;44219;-81
2022/04/27 13:13:30;;;;;;;;;;;12.40;97.00;;;;;;4360163;32;44143;-81
2022/04/27 13:15:58;;;;;;;;;;;12.50;97.10;;;;;;4359811;32;43817;-80
2022/04/27 13:18:25;;;;;;;;;;;12.50;97.20;;;;;;4346472;32;43959;-81
2022/04/27 13:20:52;;;;;;;;;;;12.50;97.00;;;;;;4359930;32;44471;-80
2022/04/27 13:23:20;;;;;;;;;;;12.50;97.00;;;;;;4346628;32;43517;-81
2022/04/27 13:25:47;;;;;;;;;;;12.60;97.10;;;;;;4346345;32;43444;-80
2022/04/27 13:28:15;;;;;;;;;;;12.60;97.10;;;;;;4346718;32;43590;-80
2022/04/27 13:30:42;;;;;;;;;;;12.70;97.10;;;;;;4359656;32;44260;-80
2022/04/27 13:33:09;;;;;;;;;;;12.70;96.90;;;;;;4346766;32;43396;-80
2022/04/27 13:35:37;;;;;;;;;;;12.70;97.20;;;;;;4346822;33;43913;-80
2022/04/27 13:38:06;;;;;;;;;;;12.80;97.10;;;;;;4346753;33;43898;-80
2022/04/27 13:40:34;;;;;;;;;;;12.80;96.90;;;;;;4359670;33;43285;-80
2022/04/27 13:43:01;;;;;;;;;;;12.80;96.70;;;;;;4359744;33;43276;-80
2022/04/27 13:45:30;;;;;;;;;;;12.90;96.60;;;;;;4360011;33;43566;-80
2022/04/27 13:47:57;;;;;;;;;;;12.90;96.70;;;;;;4346570;33;42291;-80
2022/04/27 13:50:24;;;;;;;;;;;12.90;96.70;;;;;;4346184;33;43882;-80
2022/04/27 13:52:51;;;;;;;;;;;13.00;96.60;;;;;;4359436;33;43034;-80
2022/04/27 13:55:19;;;;;;;;;;;13.00;96.50;;;;;;4346221;33;42541;-80
2022/04/27 13:57:46;;;;;;;;;;;13.00;96.70;;;;;;4346191;33;43053;-80
2022/04/27 14:00:14;;;;;;;;;;;13.00;96.60;;;;;;4359993;33;44525;-80
2022/04/27 14:02:41;;;;;;;;;;;13.10;96.60;;;;;;4359552;33;44189;-80
2022/04/27 14:05:09;;;;;;;;;;;13.10;96.30;;;;;;4359882;33;43835;-81
2022/04/27 14:07:37;;;;;;;;;;;13.10;96.30;;;;;;4359498;33;43753;-80
2022/04/27 14:10:05;;;;;;;;;;;13.10;96.40;;;;;;4346119;33;44358;-80
2022/04/27 14:15:18;;;;;;;;;;;13.20;96.20;;;;;;4359717;33;45587;-80
2022/04/27 14:20:31;;;;;;;;;;;13.30;96.10;;;;;;4359799;33;45814;-80
2022/04/27 14:22:58;;;;;;;;;;;13.30;96.20;;;;;;4346488;33;44033;-80
2022/04/27 14:25:25;;;;;;;;;;;13.30;96.20;;;;;;4359782;33;43251;-80
2022/04/27 14:27:52;;;;;;;;;;;13.30;95.90;;;;;;4359255;33;44855;-78
2022/04/27 14:30:23;;;;;;;;;;;13.40;96.10;;;;;;4359322;33;43638;-82
2022/04/27 14:32:51;;;;;;;;;;;13.40;96.00;;;;;;4359286;33;43910;-80
2022/04/27 14:35:19;;;;;;;;;;;13.40;95.70;;;;;;4348569;32;19993;-82
2022/04/27 14:37:51;;;;;;;;;;;13.50;95.70;;;;;;4350178;32;19992;-81
2022/04/27 14:40:25;;;;;;;;;;;13.60;95.80;;;;;;4349705;32;43886;-81
2022/04/27 14:42:55;;;;;;;;;;;13.60;95.60;;;;;;4362175;32;43442;-83
2022/04/27 14:45:30;;;;;;;;;;;13.60;95.70;;;;;;4362433;32;44311;-84
2022/04/27 14:48:00;;;;;;;;;;;13.60;95.70;;;;;;4362452;32;42109;-83
2022/04/27 14:50:35;;;;;;;;;;;13.60;95.60;;;;;;4349035;32;43325;-83
2022/04/27 14:53:03;;;;;;;;;;;13.70;95.50;;;;;;4348324;32;42790;-84
2022/04/27 14:55:31;;;;;;;;;;;13.70;95.70;;;;;;4361655;32;43864;-84
2022/04/27 14:58:01;;;;;;;;;;;13.70;95.70;;;;;;4361830;32;42965;-84
2022/04/27 15:00:31;;;;;;;;;;;13.80;95.30;;;;;;4348839;32;44711;-82
2022/04/27 15:02:59;;;;;;;;;;;13.80;95.10;;;;;;4346932;33;20005;-82